sensor_id;sensor_type;location;lat;lon;timestamp;pressure;altitude;pressure_sealevel;temperature;humidity
59791;BME280;47431;51.640;5.554;2023-10-08T00:01:15;103366.00;;;16.40;100.00
59791;BME280;47431;51.640;5.554;2023-10-08T00:03:45;103360.78;;;16.35;100.00
59791;BME280;47431;51.640;5.554;2023-10-08T00:06:15;103366.38;;;16.32;100.00
59791;BME280;47431;51.640;5.554;2023-10-08T00:08:40;103382.63;;;16.32;100.00
59791;BME280;47431;51.640;5.554;2023-10-08T00:11:06;103386.28;;;16.31;100.00
59791;BME280;47431;51.640;5.554;2023-10-08T00:13:32;103383.88;;;16.25;100.00
59791;BME280;47431;51.640;5.554;2023-10-08T00:16:05;103384.97;;;16.20;100.00
59791;BME280;47431;51.640;5.554;2023-10-08T00:18:35;103394.13;;;16.18;100.00
59791;BME280;47431;51.640;5.554;2023-10-08T00:21:01;103388.03;;;16.13;100.00
59791;BME280;47431;51.640;5.554;2023-10-08T00:23:36;103403.66;;;16.07;100.00
59791;BME280;47431;51.640;5.554;2023-10-08T00:26:09;103405.03;;;15.97;100.00
59791;BME280;47431;51.640;5.554;2023-10-08T00:28:35;103411.72;;;15.88;100.00
59791;BME280;47431;51.640;5.554;2023-10-08T00:31:04;103412.00;;;15.82;100.00
59791;BME280;47431;51.640;5.554;2023-10-08T00:33:52;103422.59;;;15.67;100.00
59791;BME280;47431;51.640;5.554;2023-10-08T00:36:17;103419.19;;;15.62;100.00
59791;BME280;47431;51.640;5.554;2023-10-08T00:38:45;103423.50;;;15.47;100.00
59791;BME280;47431;51.640;5.554;2023-10-08T00:41:14;103429.31;;;15.38;100.00
59791;BME280;47431;51.640;5.554;2023-10-08T00:43:47;103433.41;;;15.26;100.00
59791;BME280;47431;51.640;5.554;2023-10-08T00:46:12;103429.41;;;15.14;100.00
59791;BME280;47431;51.640;5.554;2023-10-08T00:48:55;103438.06;;;15.01;100.00
59791;BME280;47431;51.640;5.554;2023-10-08T00:51:22;103455.41;;;14.95;100.00
59791;BME280;47431;51.640;5.554;2023-10-08T00:53:54;103469.38;;;14.85;100.00
59791;BME280;47431;51.640;5.554;2023-10-08T00:56:29;103453.50;;;14.75;100.00
59791;BME280;47431;51.640;5.554;2023-10-08T00:59:33;103454.88;;;14.63;100.00
59791;BME280;47431;51.640;5.554;2023-10-08T01:02:10;103471.19;;;14.60;100.00
59791;BME280;47431;51.640;5.554;2023-10-08T01:04:41;103468.81;;;14.52;100.00
59791;BME280;47431;51.640;5.554;2023-10-08T01:07:10;103470.41;;;14.34;100.00
59791;BME280;47431;51.640;5.554;2023-10-08T01:09:40;103472.53;;;14.26;100.00
59791;BME280;47431;51.640;5.554;2023-10-08T01:12:12;103474.63;;;14.17;100.00
59791;BME280;47431;51.640;5.554;2023-10-08T01:14:40;103474.59;;;14.19;100.00
59791;BME280;47431;51.640;5.554;2023-10-08T01:17:09;103476.75;;;14.09;100.00
59791;BME280;47431;51.640;5.554;2023-10-08T01:19:39;103465.34;;;14.01;100.00
59791;BME280;47431;51.640;5.554;2023-10-08T01:22:07;103449.50;;;13.91;100.00
59791;BME280;47431;51.640;5.554;2023-10-08T01:24:33;103451.53;;;13.85;100.00
59791;BME280;47431;51.640;5.554;2023-10-08T01:27:00;103450.69;;;13.84;100.00
59791;BME280;47431;51.640;5.554;2023-10-08T01:29:30;103437.00;;;13.89;100.00
59791;BME280;47431;51.640;5.554;2023-10-08T01:31:56;103424.38;;;13.89;100.00
59791;BME280;47431;51.640;5.554;2023-10-08T01:34:22;103431.47;;;13.92;100.00
59791;BME280;47431;51.640;5.554;2023-10-08T01:36:53;103431.38;;;13.95;100.00
59791;BME280;47431;51.640;5.554;2023-10-08T01:39:18;103434.72;;;14.02;100.00
59791;BME280;47431;51.640;5.554;2023-10-08T01:41:44;103452.34;;;14.12;100.00
59791;BME280;47431;51.640;5.554;2023-10-08T01:44:11;103446.78;;;14.17;100.00
59791;BME280;47431;51.640;5.554;2023-10-08T01:46:37;103452.88;;;14.22;100.00
59791;BME280;47431;51.640;5.554;2023-10-08T01:49:05;103456.28;;;14.27;100.00
59791;BME280;47431;51.640;5.554;2023-10-08T01:51:38;103453.59;;;14.27;100.00
59791;BME280;47431;51.640;5.554;2023-10-08T01:54:06;103457.13;;;14.28;100.00
59791;BME280;47431;51.640;5.554;2023-10-08T01:56:38;103475.31;;;14.24;100.00
59791;BME280;47431;51.640;5.554;2023-10-08T01:59:06;103475.31;;;14.24;100.00
59791;BME280;47431;51.640;5.554;2023-10-08T02:01:34;103481.56;;;14.25;100.00
59791;BME280;47431;51.640;5.554;2023-10-08T02:03:59;103480.75;;;14.23;100.00
59791;BME280;47431;51.640;5.554;2023-10-08T02:06:24;103481.63;;;14.23;100.00
59791;BME280;47431;51.640;5.554;2023-10-08T02:08:50;103487.03;;;14.23;100.00
59791;BME280;47431;51.640;5.554;2023-10-08T02:11:15;103477.16;;;14.22;100.00
59791;BME280;47431;51.640;5.554;2023-10-08T02:13:41;103462.72;;;14.23;100.00
59791;BME280;47431;51.640;5.554;2023-10-08T02:16:07;103471.72;;;14.24;100.00
59791;BME280;47431;51.640;5.554;2023-10-08T02:18:33;103459.03;;;14.26;100.00
59791;BME280;47431;51.640;5.554;2023-10-08T02:20:58;103462.53;;;14.28;100.00
59791;BME280;47431;51.640;5.554;2023-10-08T02:23:24;103476.94;;;14.28;100.00
59791;BME280;47431;51.640;5.554;2023-10-08T02:25:49;103467.00;;;14.29;100.00
59791;BME280;47431;51.640;5.554;2023-10-08T02:28:15;103478.63;;;14.31;100.00
59791;BME280;47431;51.640;5.554;2023-10-08T02:30:41;103478.63;;;14.31;100.00
59791;BME280;47431;51.640;5.554;2023-10-08T02:33:07;103477.81;;;14.29;100.00
59791;BME280;47431;51.640;5.554;2023-10-08T02:35:43;103477.88;;;14.27;100.00
59791;BME280;47431;51.640;5.554;2023-10-08T02:38:13;103479.69;;;14.27;100.00
59791;BME280;47431;51.640;5.554;2023-10-08T02:40:41;103490.63;;;14.24;100.00
59791;BME280;47431;51.640;5.554;2023-10-08T02:43:10;103502.38;;;14.23;100.00
59791;BME280;47431;51.640;5.554;2023-10-08T02:45:37;103498.00;;;14.18;100.00
59791;BME280;47431;51.640;5.554;2023-10-08T02:48:07;103512.44;;;14.17;100.00
59791;BME280;47431;51.640;5.554;2023-10-08T02:50:38;103505.34;;;14.15;100.00
59791;BME280;47431;51.640;5.554;2023-10-08T02:53:05;103520.78;;;14.11;100.00
59791;BME280;47431;51.640;5.554;2023-10-08T02:55:37;103508.28;;;14.08;100.00
59791;BME280;47431;51.640;5.554;2023-10-08T02:58:07;103512.81;;;14.08;100.00
59791;BME280;47431;51.640;5.554;2023-10-08T03:00:43;103498.53;;;14.04;100.00
59791;BME280;47431;51.640;5.554;2023-10-08T03:03:12;103480.47;;;14.06;100.00
59791;BME280;47431;51.640;5.554;2023-10-08T03:05:53;103495.81;;;14.04;100.00
59791;BME280;47431;51.640;5.554;2023-10-08T03:08:21;103491.44;;;14.02;100.00
59791;BME280;47431;51.640;5.554;2023-10-08T03:10:51;103503.09;;;14.02;100.00
59791;BME280;47431;51.640;5.554;2023-10-08T03:13:28;103507.63;;;14.02;100.00
59791;BME280;47431;51.640;5.554;2023-10-08T03:15:54;103524.69;;;14.02;100.00
59791;BME280;47431;51.640;5.554;2023-10-08T03:18:29;103529.19;;;14.03;100.00
59791;BME280;47431;51.640;5.554;2023-10-08T03:21:02;103543.63;;;14.01;100.00
59791;BME280;47431;51.640;5.554;2023-10-08T03:23:30;103555.38;;;14.00;100.00
59791;BME280;47431;51.640;5.554;2023-10-08T03:26:04;103572.53;;;13.99;100.00
59791;BME280;47431;51.640;5.554;2023-10-08T03:28:36;103590.59;;;13.97;100.00
59791;BME280;47431;51.640;5.554;2023-10-08T03:31:03;103580.78;;;13.94;100.00
59791;BME280;47431;51.640;5.554;2023-10-08T03:33:33;103587.28;;;13.88;100.00
59791;BME280;47431;51.640;5.554;2023-10-08T03:36:06;103603.44;;;13.90;100.00
59791;BME280;47431;51.640;5.554;2023-10-08T03:38:37;103608.09;;;13.85;100.00
59791;BME280;47431;51.640;5.554;2023-10-08T03:41:25;103646.78;;;13.85;100.00
59791;BME280;47431;51.640;5.554;2023-10-08T03:43:55;103647.78;;;13.82;100.00
59791;BME280;47431;51.640;5.554;2023-10-08T03:46:28;103651.50;;;13.78;100.00
59791;BME280;47431;51.640;5.554;2023-10-08T03:48:54;103654.31;;;13.75;100.00
59791;BME280;47431;51.640;5.554;2023-10-08T03:51:23;103678.69;;;13.72;100.00
59791;BME280;47431;51.640;5.554;2023-10-08T03:53:53;103696.75;;;13.70;100.00
59791;BME280;47431;51.640;5.554;2023-10-08T03:56:27;103685.09;;;13.69;100.00
59791;BME280;47431;51.640;5.554;2023-10-08T03:58:57;103666.44;;;13.62;100.00
59791;BME280;47431;51.640;5.554;2023-10-08T04:01:26;103669.31;;;13.55;100.00
59791;BME280;47431;51.640;5.554;2023-10-08T04:03:55;103674.88;;;13.51;100.00
59791;BME280;47431;51.640;5.554;2023-10-08T04:06:27;103681.19;;;13.50;100.00
59791;BME280;47431;51.640;5.554;2023-10-08T04:09:16;103692.00;;;13.50;100.00
59791;BME280;47431;51.640;5.554;2023-10-08T04:11:49;103683.00;;;13.48;100.00
59791;BME280;47431;51.640;5.554;2023-10-08T04:14:19;103694.78;;;13.45;100.00
59791;BME280;47431;51.640;5.554;2023-10-08T04:16:45;103680.41;;;13.44;100.00
59791;BME280;47431;51.640;5.554;2023-10-08T04:19:11;103685.94;;;13.41;100.00
59791;BME280;47431;51.640;5.554;2023-10-08T04:21:37;103696.59;;;13.44;100.00
59791;BME280;47431;51.640;5.554;2023-10-08T04:24:05;103706.63;;;13.41;100.00
59791;BME280;47431;51.640;5.554;2023-10-08T04:26:31;103702.94;;;13.43;100.00
59791;BME280;47431;51.640;5.554;2023-10-08T04:28:58;103707.50;;;13.41;100.00
59791;BME280;47431;51.640;5.554;2023-10-08T04:31:31;103687.78;;;13.39;100.00
59791;BME280;47431;51.640;5.554;2023-10-08T04:34:03;103697.69;;;13.39;100.00
59791;BME280;47431;51.640;5.554;2023-10-08T04:36:36;103700.41;;;13.37;100.00
59791;BME280;47431;51.640;5.554;2023-10-08T04:39:04;103711.22;;;13.37;100.00
59791;BME280;47431;51.640;5.554;2023-10-08T04:41:42;103721.19;;;13.35;100.00
59791;BME280;47431;51.640;5.554;2023-10-08T04:44:11;103722.94;;;13.36;100.00
59791;BME280;47431;51.640;5.554;2023-10-08T04:46:41;103737.38;;;13.35;100.00
59791;BME280;47431;51.640;5.554;2023-10-08T04:49:16;103730.19;;;13.34;100.00
59791;BME280;47431;51.640;5.554;2023-10-08T04:52:02;103720.41;;;13.30;100.00
59791;BME280;47431;51.640;5.554;2023-10-08T04:54:38;103725.91;;;13.27;100.00
59791;BME280;47431;51.640;5.554;2023-10-08T04:57:06;103715.19;;;13.24;100.00
59791;BME280;47431;51.640;5.554;2023-10-08T04:59:32;103715.63;;;13.10;100.00
59791;BME280;47431;51.640;5.554;2023-10-08T05:02:03;103713.81;;;13.10;100.00
59791;BME280;47431;51.640;5.554;2023-10-08T05:04:50;103716.81;;;12.99;100.00
59791;BME280;47431;51.640;5.554;2023-10-08T05:07:19;103727.72;;;12.94;100.00
59791;BME280;47431;51.640;5.554;2023-10-08T05:10:06;103732.59;;;12.81;100.00
59791;BME280;47431;51.640;5.554;2023-10-08T05:12:33;103724.59;;;12.78;100.00
59791;BME280;47431;51.640;5.554;2023-10-08T05:14:59;103715.66;;;12.76;100.00
59791;BME280;47431;51.640;5.554;2023-10-08T05:17:43;103718.31;;;12.78;100.00
59791;BME280;47431;51.640;5.554;2023-10-08T05:20:15;103715.66;;;12.76;100.00
59791;BME280;47431;51.640;5.554;2023-10-08T05:23:11;103731.13;;;12.70;100.00
59791;BME280;47431;51.640;5.554;2023-10-08T05:25:48;103737.44;;;12.68;100.00
59791;BME280;47431;51.640;5.554;2023-10-08T05:28:32;103737.44;;;12.68;100.00
59791;BME280;47431;51.640;5.554;2023-10-08T05:31:10;103718.63;;;12.67;100.00
59791;BME280;47431;51.640;5.554;2023-10-08T05:33:40;103715.94;;;12.67;100.00
59791;BME280;47431;51.640;5.554;2023-10-08T05:36:25;103701.59;;;12.65;100.00
59791;BME280;47431;51.640;5.554;2023-10-08T05:39:01;103694.34;;;12.68;100.00
59791;BME280;47431;51.640;5.554;2023-10-08T05:41:29;103695.16;;;12.71;100.00
59791;BME280;47431;51.640;5.554;2023-10-08T05:44:06;103719.06;;;12.83;100.00
59791;BME280;47431;51.640;5.554;2023-10-08T05:46:49;103740.56;;;12.86;100.00
59791;BME280;47431;51.640;5.554;2023-10-08T05:49:23;103735.22;;;12.85;100.00
59791;BME280;47431;51.640;5.554;2023-10-08T05:52:04;103733.28;;;12.88;100.00
59791;BME280;47431;51.640;5.554;2023-10-08T05:54:30;103727.00;;;12.89;100.00
59791;BME280;47431;51.640;5.554;2023-10-08T05:59:37;103724.00;;;12.99;100.00
59791;BME280;47431;51.640;5.554;2023-10-08T06:02:22;103700.72;;;12.96;100.00
59791;BME280;47431;51.640;5.554;2023-10-08T06:05:06;103707.03;;;12.97;100.00
59791;BME280;47431;51.640;5.554;2023-10-08T06:07:43;103710.53;;;12.99;100.00
59791;BME280;47431;51.640;5.554;2023-10-08T06:13:09;103717.63;;;13.03;100.00
59791;BME280;47431;51.640;5.554;2023-10-08T06:15:36;103721.06;;;13.08;100.00
59791;BME280;47431;51.640;5.554;2023-10-08T06:18:23;103725.59;;;13.06;100.00
59791;BME280;47431;51.640;5.554;2023-10-08T06:20:55;103723.88;;;13.03;100.00
59791;BME280;47431;51.640;5.554;2023-10-08T06:23:21;103712.16;;;13.04;100.00
59791;BME280;47431;51.640;5.554;2023-10-08T06:25:49;103714.88;;;13.04;100.00
59791;BME280;47431;51.640;5.554;2023-10-08T06:28:22;103713.91;;;13.07;100.00
59791;BME280;47431;51.640;5.554;2023-10-08T06:30:52;103704.94;;;13.06;100.00
59791;BME280;47431;51.640;5.554;2023-10-08T06:33:23;103711.94;;;13.12;100.00
59791;BME280;47431;51.640;5.554;2023-10-08T06:36:07;103712.72;;;13.17;100.00
59791;BME280;47431;51.640;5.554;2023-10-08T06:38:47;103710.75;;;13.23;100.00
59791;BME280;47431;51.640;5.554;2023-10-08T06:41:17;103719.66;;;13.26;100.00
59791;BME280;47431;51.640;5.554;2023-10-08T06:43:47;103717.63;;;13.33;100.00
59791;BME280;47431;51.640;5.554;2023-10-08T06:46:28;103724.41;;;13.47;100.00
59791;BME280;47431;51.640;5.554;2023-10-08T06:48:54;103731.47;;;13.52;100.00
59791;BME280;47431;51.640;5.554;2023-10-08T06:51:19;103747.38;;;13.62;100.00
59791;BME280;47431;51.640;5.554;2023-10-08T06:53:47;103749.59;;;13.77;100.00
59791;BME280;47431;51.640;5.554;2023-10-08T06:56:14;103757.16;;;13.94;100.00
59791;BME280;47431;51.640;5.554;2023-10-08T06:58:41;103764.13;;;14.02;100.00
59791;BME280;47431;51.640;5.554;2023-10-08T07:01:16;103766.38;;;14.16;100.00
59791;BME280;47431;51.640;5.554;2023-10-08T07:03:47;103763.66;;;14.16;100.00
59791;BME280;47431;51.640;5.554;2023-10-08T07:06:14;103757.25;;;14.18;100.00
59791;BME280;47431;51.640;5.554;2023-10-08T07:08:51;103758.91;;;14.24;100.00
59791;BME280;47431;51.640;5.554;2023-10-08T07:11:21;103759.47;;;14.34;100.00
59791;BME280;47431;51.640;5.554;2023-10-08T07:13:47;103755.50;;;14.44;100.00
59791;BME280;47431;51.640;5.554;2023-10-08T07:16:12;103770.28;;;14.61;100.00
59791;BME280;47431;51.640;5.554;2023-10-08T07:18:38;103782.41;;;14.75;100.00
59791;BME280;47431;51.640;5.554;2023-10-08T07:21:04;103768.78;;;14.78;100.00
59791;BME280;47431;51.640;5.554;2023-10-08T07:23:37;103768.53;;;14.86;100.00
59791;BME280;47431;51.640;5.554;2023-10-08T07:26:19;103770.75;;;15.00;100.00
59791;BME280;47431;51.640;5.554;2023-10-08T07:28:49;103767.44;;;15.15;100.00
59791;BME280;47431;51.640;5.554;2023-10-08T07:31:21;103787.91;;;15.23;100.00
59791;BME280;47431;51.640;5.554;2023-10-08T07:33:48;103802.34;;;15.23;100.00
59791;BME280;47431;51.640;5.554;2023-10-08T07:36:25;103813.28;;;15.20;100.00
59791;BME280;47431;51.640;5.554;2023-10-08T07:38:52;103812.69;;;15.12;100.00
59791;BME280;47431;51.640;5.554;2023-10-08T07:41:17;103812.63;;;15.13;100.00
59791;BME280;47431;51.640;5.554;2023-10-08T07:43:46;103833.31;;;15.14;100.00
59791;BME280;47431;51.640;5.554;2023-10-08T07:46:18;103835.97;;;15.16;100.00
59791;BME280;47431;51.640;5.554;2023-10-08T07:48:43;103825.78;;;15.23;100.00
59791;BME280;47431;51.640;5.554;2023-10-08T07:51:09;103820.28;;;15.26;100.00
59791;BME280;47431;51.640;5.554;2023-10-08T07:53:34;103826.34;;;15.32;100.00
59791;BME280;47431;51.640;5.554;2023-10-08T07:56:04;103828.81;;;15.39;100.00
59791;BME280;47431;51.640;5.554;2023-10-08T07:58:32;103835.75;;;15.46;100.00
59791;BME280;47431;51.640;5.554;2023-10-08T08:01:03;103844.44;;;15.56;100.00
59791;BME280;47431;51.640;5.554;2023-10-08T08:03:28;103846.66;;;15.68;100.00
59791;BME280;47431;51.640;5.554;2023-10-08T08:05:54;103850.88;;;15.76;100.00
59791;BME280;47431;51.640;5.554;2023-10-08T08:08:19;103850.53;;;15.85;100.00
59791;BME280;47431;51.640;5.554;2023-10-08T08:10:46;103850.09;;;15.97;100.00
59791;BME280;47431;51.640;5.554;2023-10-08T08:13:12;103853.13;;;16.12;100.00
59791;BME280;47431;51.640;5.554;2023-10-08T08:15:45;103852.31;;;16.32;100.00
59791;BME280;47431;51.640;5.554;2023-10-08T08:18:16;103867.78;;;16.51;100.00
59791;BME280;47431;51.640;5.554;2023-10-08T08:20:48;103868.81;;;16.92;100.00
59791;BME280;47431;51.640;5.554;2023-10-08T08:23:13;103880.72;;;17.10;100.00
59791;BME280;47431;51.640;5.554;2023-10-08T08:25:40;103897.06;;;17.29;100.00
59791;BME280;47431;51.640;5.554;2023-10-08T08:28:31;103914.09;;;17.33;100.00
59791;BME280;47431;51.640;5.554;2023-10-08T08:31:02;103930.94;;;17.20;100.00
59791;BME280;47431;51.640;5.554;2023-10-08T08:33:32;103931.78;;;17.21;100.00
59791;BME280;47431;51.640;5.554;2023-10-08T08:36:17;103927.41;;;17.18;100.00
59791;BME280;47431;51.640;5.554;2023-10-08T08:38:43;103928.75;;;17.29;100.00
59791;BME280;47431;51.640;5.554;2023-10-08T08:41:12;103930.50;;;17.30;100.00
59791;BME280;47431;51.640;5.554;2023-10-08T08:43:38;103942.38;;;17.27;100.00
59791;BME280;47431;51.640;5.554;2023-10-08T08:46:10;103944.50;;;17.20;100.00
59791;BME280;47431;51.640;5.554;2023-10-08T08:48:40;103942.19;;;17.11;100.00
59791;BME280;47431;51.640;5.554;2023-10-08T08:51:06;103951.56;;;17.02;100.00
59791;BME280;47431;51.640;5.554;2023-10-08T08:53:41;103936.03;;;17.06;100.00
59791;BME280;47431;51.640;5.554;2023-10-08T08:56:08;103939.47;;;16.89;100.00
59791;BME280;47431;51.640;5.554;2023-10-08T08:58:38;103935.72;;;16.91;100.00
59791;BME280;47431;51.640;5.554;2023-10-08T09:01:06;103933.59;;;16.99;100.00
59791;BME280;47431;51.640;5.554;2023-10-08T09:03:33;103928.69;;;17.09;100.00
59791;BME280;47431;51.640;5.554;2023-10-08T09:05:59;103932.34;;;17.08;100.00
59791;BME280;47431;51.640;5.554;2023-10-08T09:08:28;103943.75;;;17.17;100.00
59791;BME280;47431;51.640;5.554;2023-10-08T09:10:59;103945.63;;;17.15;100.00
59791;BME280;47431;51.640;5.554;2023-10-08T09:13:26;103961.31;;;17.08;100.00
59791;BME280;47431;51.640;5.554;2023-10-08T09:15:57;103960.16;;;17.14;100.00
59791;BME280;47431;51.640;5.554;2023-10-08T09:18:24;103959.13;;;17.16;100.00
59791;BME280;47431;51.640;5.554;2023-10-08T09:20:52;103958.06;;;17.20;100.00
59791;BME280;47431;51.640;5.554;2023-10-08T09:23:17;103964.22;;;17.24;100.00
59791;BME280;47431;51.640;5.554;2023-10-08T09:25:45;103959.28;;;17.34;100.00
59791;BME280;47431;51.640;5.554;2023-10-08T09:28:15;103978.97;;;17.39;100.00
59791;BME280;47431;51.640;5.554;2023-10-08T09:30:42;103987.75;;;17.23;100.00
59791;BME280;47431;51.640;5.554;2023-10-08T09:33:11;103985.88;;;17.03;100.00
59791;BME280;47431;51.640;5.554;2023-10-08T09:35:45;103964.50;;;17.39;100.00
59791;BME280;47431;51.640;5.554;2023-10-08T09:38:11;103966.22;;;16.98;100.00
59791;BME280;47431;51.640;5.554;2023-10-08T09:40:38;103961.41;;;17.05;100.00
59791;BME280;47431;51.640;5.554;2023-10-08T09:43:04;103963.06;;;17.09;100.00
59791;BME280;47431;51.640;5.554;2023-10-08T09:45:30;103960.78;;;16.98;100.00
59791;BME280;47431;51.640;5.554;2023-10-08T09:47:56;103956.09;;;17.02;100.00
59791;BME280;47431;51.640;5.554;2023-10-08T09:50:29;103939.59;;;17.08;100.00
59791;BME280;47431;51.640;5.554;2023-10-08T09:53:13;103940.44;;;17.31;100.00
59791;BME280;47431;51.640;5.554;2023-10-08T09:58:20;103943.91;;;17.74;100.00
59791;BME280;47431;51.640;5.554;2023-10-08T10:00:48;103952.88;;;17.77;100.00
59791;BME280;47431;51.640;5.554;2023-10-08T10:03:14;103954.44;;;17.82;100.00
59791;BME280;47431;51.640;5.554;2023-10-08T10:05:42;103956.78;;;17.90;100.00
59791;BME280;47431;51.640;5.554;2023-10-08T10:08:08;103957.16;;;18.02;100.00
59791;BME280;47431;51.640;5.554;2023-10-08T10:10:37;103961.50;;;18.06;100.00
59791;BME280;47431;51.640;5.554;2023-10-08T10:13:09;103970.13;;;18.16;100.00
59791;BME280;47431;51.640;5.554;2023-10-08T10:15:53;103974.00;;;18.48;100.00
59791;BME280;47431;51.640;5.554;2023-10-08T10:23:41;103995.78;;;18.08;100.00
59791;BME280;47431;51.640;5.554;2023-10-08T10:31:33;103982.94;;;17.93;100.00
59791;BME280;47431;51.640;5.554;2023-10-08T10:34:08;103970.28;;;18.32;100.00
59791;BME280;47431;51.640;5.554;2023-10-08T10:36:34;103980.22;;;18.89;100.00
59791;BME280;47431;51.640;5.554;2023-10-08T10:38:59;103981.25;;;18.67;100.00
59791;BME280;47431;51.640;5.554;2023-10-08T10:41:25;103993.97;;;18.86;100.00
59791;BME280;47431;51.640;5.554;2023-10-08T10:43:53;104018.41;;;18.68;100.00
59791;BME280;47431;51.640;5.554;2023-10-08T10:46:18;104036.56;;;18.29;100.00
59791;BME280;47431;51.640;5.554;2023-10-08T10:48:58;104021.28;;;18.06;100.00
59791;BME280;47431;51.640;5.554;2023-10-08T10:51:44;104016.53;;;17.90;100.00
59791;BME280;47431;51.640;5.554;2023-10-08T10:54:09;104014.13;;;17.84;100.00
59791;BME280;47431;51.640;5.554;2023-10-08T10:56:35;104004.56;;;17.75;100.00
59791;BME280;47431;51.640;5.554;2023-10-08T10:59:08;103992.97;;;17.91;100.00
59791;BME280;47431;51.640;5.554;2023-10-08T11:01:53;103999.38;;;18.30;100.00
59791;BME280;47431;51.640;5.554;2023-10-08T11:04:31;104008.03;;;18.57;100.00
59791;BME280;47431;51.640;5.554;2023-10-08T11:06:57;104022.81;;;18.52;100.00
59791;BME280;47431;51.640;5.554;2023-10-08T11:09:27;104020.00;;;18.72;100.00
59791;BME280;47431;51.640;5.554;2023-10-08T11:12:04;104026.72;;;18.65;100.00
59791;BME280;47431;51.640;5.554;2023-10-08T11:14:42;104028.66;;;18.81;100.00
59791;BME280;47431;51.640;5.554;2023-10-08T11:17:12;104014.41;;;18.75;100.00
59791;BME280;47431;51.640;5.554;2023-10-08T11:19:39;104020.94;;;19.10;100.00
59791;BME280;47431;51.640;5.554;2023-10-08T11:22:07;104010.91;;;18.54;100.00
59791;BME280;47431;51.640;5.554;2023-10-08T11:24:41;104015.69;;;18.49;100.00
59791;BME280;47431;51.640;5.554;2023-10-08T11:27:08;103994.16;;;18.44;100.00
59791;BME280;47431;51.640;5.554;2023-10-08T11:29:47;104001.44;;;18.44;100.00
59791;BME280;47431;51.640;5.554;2023-10-08T11:32:15;103997.78;;;18.25;100.00
59791;BME280;47431;51.640;5.554;2023-10-08T11:34:47;103981.09;;;17.93;100.00
59791;BME280;47431;51.640;5.554;2023-10-08T11:37:29;103965.06;;;17.68;100.00
59791;BME280;47431;51.640;5.554;2023-10-08T11:39:55;103946.00;;;17.28;100.00
59791;BME280;47431;51.640;5.554;2023-10-08T11:42:24;103941.44;;;17.06;100.00
59791;BME280;47431;51.640;5.554;2023-10-08T11:45:02;103933.38;;;17.04;100.00
59791;BME280;47431;51.640;5.554;2023-10-08T11:47:46;103909.88;;;17.26;100.00
59791;BME280;47431;51.640;5.554;2023-10-08T11:50:14;103904.31;;;17.49;100.00
59791;BME280;47431;51.640;5.554;2023-10-08T11:52:45;103902.22;;;17.75;100.00
59791;BME280;47431;51.640;5.554;2023-10-08T11:55:11;103916.91;;;17.91;100.00
59791;BME280;47431;51.640;5.554;2023-10-08T11:57:47;103939.72;;;18.27;100.00
59791;BME280;47431;51.640;5.554;2023-10-08T12:00:15;103946.47;;;18.37;100.00
59791;BME280;47431;51.640;5.554;2023-10-08T12:02:51;103944.28;;;18.63;100.00
59791;BME280;47431;51.640;5.554;2023-10-08T12:05:21;103951.84;;;18.75;100.00
59791;BME280;47431;51.640;5.554;2023-10-08T12:07:53;103946.81;;;18.85;100.00
59791;BME280;47431;51.640;5.554;2023-10-08T12:10:23;103942.66;;;18.96;100.00
59791;BME280;47431;51.640;5.554;2023-10-08T12:12:53;103954.41;;;19.16;100.00
59791;BME280;47431;51.640;5.554;2023-10-08T12:15:20;103960.22;;;19.43;100.00
59791;BME280;47431;51.640;5.554;2023-10-08T12:17:47;103960.22;;;19.43;100.00
59791;BME280;47431;51.640;5.554;2023-10-08T12:20:32;103962.94;;;19.43;100.00
59791;BME280;47431;51.640;5.554;2023-10-08T12:22:59;103981.06;;;19.26;100.00
59791;BME280;47431;51.640;5.554;2023-10-08T12:25:25;103978.09;;;19.13;100.00
59791;BME280;47431;51.640;5.554;2023-10-08T12:27:50;103979.28;;;19.08;100.00
59791;BME280;47431;51.640;5.554;2023-10-08T12:30:16;103978.94;;;18.96;100.00
59791;BME280;47431;51.640;5.554;2023-10-08T12:32:41;103954.91;;;18.87;100.00
59791;BME280;47431;51.640;5.554;2023-10-08T12:35:10;103960.50;;;18.84;100.00
59791;BME280;47431;51.640;5.554;2023-10-08T12:37:40;103951.69;;;18.79;100.00
59791;BME280;47431;51.640;5.554;2023-10-08T12:40:09;103952.16;;;18.69;100.00
59791;BME280;47431;51.640;5.554;2023-10-08T12:42:53;103939.38;;;18.71;100.00
59791;BME280;47431;51.640;5.554;2023-10-08T12:45:19;103929.09;;;18.59;100.00
59791;BME280;47431;51.640;5.554;2023-10-08T12:47:52;103921.00;;;18.57;100.00
59791;BME280;47431;51.640;5.554;2023-10-08T12:50:18;103929.47;;;18.51;100.00
59791;BME280;47431;51.640;5.554;2023-10-08T12:53:04;103909.84;;;18.63;100.00
59791;BME280;47431;51.640;5.554;2023-10-08T12:55:30;103908.97;;;18.98;100.00
59791;BME280;47431;51.640;5.554;2023-10-08T12:57:56;103909.81;;;19.18;100.00
59791;BME280;47431;51.640;5.554;2023-10-08T13:00:31;103918.75;;;19.38;100.00
59791;BME280;47431;51.640;5.554;2023-10-08T13:02:56;103915.91;;;19.57;100.00
59791;BME280;47431;51.640;5.554;2023-10-08T13:05:23;103929.38;;;19.60;100.00
59791;BME280;47431;51.640;5.554;2023-10-08T13:07:56;103927.03;;;19.70;100.00
59791;BME280;47431;51.640;5.554;2023-10-08T13:10:24;103922.66;;;19.84;100.00
59791;BME280;47431;51.640;5.554;2023-10-08T13:12:51;103912.91;;;19.96;100.00
59791;BME280;47431;51.640;5.554;2023-10-08T13:15:16;103917.78;;;20.07;100.00
59791;BME280;47431;51.640;5.554;2023-10-08T13:17:42;103922.28;;;20.08;100.00